createdAt,value
2022-09-12T00:01:25.606Z,14.60
2022-09-12T00:03:58.161Z,14.50
2022-09-12T00:06:35.747Z,14.50
2022-09-12T00:09:08.654Z,14.50
2022-09-12T00:11:42.352Z,14.50
2022-09-12T00:14:13.877Z,14.50
2022-09-12T00:16:44.924Z,14.50
2022-09-12T00:19:12.682Z,14.50
2022-09-12T00:21:40.787Z,14.40
2022-09-12T00:24:09.436Z,14.40
2022-09-12T00:26:36.570Z,14.40
2022-09-12T00:29:04.322Z,14.40
2022-09-12T00:31:31.656Z,14.40
2022-09-12T00:34:01.971Z,14.40
2022-09-12T00:36:32.560Z,14.40
2022-09-12T00:39:00.166Z,14.30
2022-09-12T00:41:38.112Z,14.30
2022-09-12T00:44:23.135Z,14.30
2022-09-12T00:46:53.751Z,14.30
2022-09-12T00:49:34.982Z,14.30
2022-09-12T00:52:04.877Z,14.30
2022-09-12T00:54:50.164Z,14.30
2022-09-12T00:57:24.880Z,14.40
2022-09-12T01:00:04.614Z,14.40
2022-09-12T01:02:32.650Z,14.30
2022-09-12T01:05:00.573Z,14.40
2022-09-12T01:07:28.279Z,14.40
2022-09-12T01:09:55.794Z,14.40
2022-09-12T01:12:22.856Z,14.40
2022-09-12T01:14:53.141Z,14.40
2022-09-12T01:17:20.318Z,14.40
2022-09-12T01:20:23.947Z,14.40
2022-09-12T01:23:01.074Z,14.40
2022-09-12T01:25:44.275Z,14.40
2022-09-12T01:28:39.159Z,14.40
2022-09-12T01:31:17.855Z,14.40
2022-09-12T01:34:09.317Z,14.40
2022-09-12T01:36:52.904Z,14.40
2022-09-12T01:39:47.151Z,14.40
2022-09-12T01:42:40.518Z,14.40
2022-09-12T01:45:39.497Z,14.40
2022-09-12T01:48:20.467Z,14.40
2022-09-12T01:51:26.265Z,14.40
2022-09-12T01:54:11.133Z,14.40
2022-09-12T01:56:43.049Z,14.50
2022-09-12T01:59:28.698Z,14.50
2022-09-12T02:02:09.837Z,14.50
2022-09-12T02:04:55.647Z,14.50
2022-09-12T02:07:45.031Z,14.50
2022-09-12T02:10:30.391Z,14.60
2022-09-12T02:13:34.731Z,14.60
2022-09-12T02:16:13.327Z,14.60
2022-09-12T02:18:52.220Z,14.60
2022-09-12T02:21:22.752Z,14.70
2022-09-12T02:24:02.935Z,14.70
2022-09-12T02:26:47.576Z,14.70
2022-09-12T02:29:15.067Z,14.70
2022-09-12T02:31:52.054Z,14.70
2022-09-12T02:34:56.140Z,14.70
2022-09-12T02:38:11.538Z,14.70
2022-09-12T02:40:42.426Z,14.80
2022-09-12T02:43:09.728Z,14.80
2022-09-12T02:45:37.412Z,14.70
2022-09-12T02:48:22.393Z,14.70
2022-09-12T02:50:49.665Z,14.70
2022-09-12T02:53:18.275Z,14.70
2022-09-12T02:55:45.504Z,14.60
2022-09-12T02:58:19.242Z,14.70
2022-09-12T03:01:07.456Z,14.60
2022-09-12T03:03:52.817Z,14.60
2022-09-12T03:07:18.253Z,14.60
2022-09-12T03:10:18.092Z,14.60
2022-09-12T03:13:03.892Z,14.60
2022-09-12T03:15:49.484Z,14.50
2022-09-12T03:18:34.256Z,14.50
2022-09-12T03:21:12.345Z,14.50
2022-09-12T03:24:02.492Z,14.50
2022-09-12T03:26:37.590Z,14.50
2022-09-12T03:29:07.485Z,14.50
2022-09-12T03:31:34.814Z,14.50
2022-09-12T03:34:05.822Z,14.40
2022-09-12T03:36:33.445Z,14.40
2022-09-12T03:39:00.528Z,14.40
2022-09-12T03:41:27.625Z,14.40
2022-09-12T03:43:58.358Z,14.40
2022-09-12T03:46:25.559Z,14.50
2022-09-12T03:48:52.653Z,14.40
2022-09-12T03:51:19.728Z,14.50
2022-09-12T03:53:47.634Z,14.50
2022-09-12T03:56:15.177Z,14.50
2022-09-12T03:58:42.641Z,14.40
2022-09-12T04:01:16.323Z,14.40
2022-09-12T04:03:47.071Z,14.40
2022-09-12T04:06:18.047Z,14.40
2022-09-12T04:08:48.818Z,14.40
2022-09-12T04:11:16.702Z,14.40
2022-09-12T04:13:45.868Z,14.40
2022-09-12T04:16:17.717Z,14.40
2022-09-12T04:18:46.018Z,14.40
2022-09-12T04:21:19.668Z,14.40
2022-09-12T04:23:50.787Z,14.40
2022-09-12T04:26:19.183Z,14.40
2022-09-12T04:28:47.446Z,14.40
2022-09-12T04:31:20.790Z,14.40
2022-09-12T04:33:48.630Z,14.40
2022-09-12T04:36:17.712Z,14.40
2022-09-12T04:38:47.094Z,14.40
2022-09-12T04:41:21.414Z,14.40
2022-09-12T04:43:54.169Z,14.40
2022-09-12T04:46:21.812Z,14.40
2022-09-12T04:48:53.278Z,14.40
2022-09-12T04:51:31.039Z,14.50
2022-09-12T04:54:07.738Z,14.50
2022-09-12T04:56:39.937Z,14.50
2022-09-12T04:59:08.734Z,14.50
2022-09-12T05:01:36.584Z,14.50
2022-09-12T05:04:04.280Z,14.50
2022-09-12T05:06:34.832Z,14.50
2022-09-12T05:09:05.341Z,14.50
2022-09-12T05:12:02.598Z,14.50
2022-09-12T05:14:23.567Z,14.50
2022-09-12T05:16:50.743Z,14.50
2022-09-12T05:19:21.202Z,14.60
2022-09-12T05:21:48.255Z,14.60
2022-09-12T05:24:15.510Z,14.60
2022-09-12T05:26:48.767Z,14.70
2022-09-12T05:29:19.092Z,14.70
2022-09-12T05:31:52.207Z,14.70
2022-09-12T05:34:20.438Z,14.80
2022-09-12T05:36:47.713Z,14.80
2022-09-12T05:39:15.039Z,14.80
2022-09-12T05:41:42.340Z,14.90
2022-09-12T05:44:14.280Z,14.90
2022-09-12T05:46:44.391Z,14.90
2022-09-12T05:49:13.779Z,14.90
2022-09-12T05:51:45.834Z,14.90
2022-09-12T05:54:17.267Z,14.90
2022-09-12T05:56:45.024Z,15.00
2022-09-12T05:59:21.849Z,15.00
2022-09-12T06:01:52.489Z,15.00
2022-09-12T06:04:19.704Z,15.00
2022-09-12T06:06:47.272Z,15.00
2022-09-12T06:09:16.585Z,15.10
2022-09-12T06:11:45.515Z,15.10
2022-09-12T06:14:17.678Z,15.20
2022-09-12T06:16:45.203Z,15.20
2022-09-12T06:19:23.936Z,15.20
2022-09-12T06:21:51.637Z,15.30
2022-09-12T06:24:21.229Z,15.30
2022-09-12T06:26:54.755Z,15.40
2022-09-12T06:29:22.009Z,15.40
2022-09-12T06:31:49.175Z,15.40
2022-09-12T06:34:17.378Z,15.50
2022-09-12T06:36:48.600Z,15.50
2022-09-12T06:39:20.058Z,15.60
2022-09-12T06:41:49.836Z,15.60
2022-09-12T06:44:22.002Z,15.70
2022-09-12T06:46:49.774Z,15.70
2022-09-12T06:49:17.935Z,15.80
2022-09-12T06:51:48.333Z,15.80
2022-09-12T06:54:17.248Z,15.90
2022-09-12T06:56:45.045Z,15.90
2022-09-12T06:59:12.709Z,15.90
2022-09-12T07:01:41.807Z,16.00
2022-09-12T07:04:09.283Z,16.00
2022-09-12T07:06:44.641Z,16.00
2022-09-12T07:09:18.071Z,16.00
2022-09-12T07:11:46.514Z,16.00
2022-09-12T07:14:14.750Z,16.10
2022-09-12T07:16:42.216Z,16.10
2022-09-12T07:19:10.586Z,16.10
2022-09-12T07:21:40.455Z,16.10
2022-09-12T07:24:10.027Z,16.20
2022-09-12T07:26:40.031Z,16.20
2022-09-12T07:29:34.715Z,16.30
2022-09-12T07:31:56.650Z,16.20
2022-09-12T07:34:23.749Z,16.30
2022-09-12T07:36:50.896Z,16.40
2022-09-12T07:39:18.003Z,16.40
2022-09-12T07:41:45.166Z,16.40
2022-09-12T07:44:12.141Z,16.50
2022-09-12T07:46:40.160Z,16.50
2022-09-12T07:49:08.593Z,16.50
2022-09-12T07:51:35.997Z,16.60
2022-09-12T07:54:07.380Z,16.60
2022-09-12T07:56:38.739Z,16.60
2022-09-12T07:59:07.982Z,16.70
2022-09-12T08:01:35.941Z,16.80
2022-09-12T08:04:04.958Z,16.80
2022-09-12T08:06:33.917Z,16.80
2022-09-12T08:09:01.863Z,16.90
2022-09-12T08:11:32.455Z,17.00
2022-09-12T08:14:01.744Z,17.20
2022-09-12T08:16:31.541Z,17.30
2022-09-12T08:19:04.508Z,17.30
2022-09-12T08:21:33.691Z,17.40
2022-09-12T08:24:05.072Z,17.40
2022-09-12T08:26:33.936Z,17.50
2022-09-12T08:29:01.509Z,17.50
2022-09-12T08:31:36.499Z,17.60
2022-09-12T08:34:07.853Z,17.60
2022-09-12T08:36:36.324Z,17.60
2022-09-12T08:39:07.249Z,17.60
2022-09-12T08:41:46.587Z,17.70
2022-09-12T08:45:20.734Z,17.70
2022-09-12T08:47:49.070Z,17.70
2022-09-12T08:50:22.317Z,17.80
2022-09-12T08:53:15.891Z,17.90
2022-09-12T08:55:57.141Z,18.00
2022-09-12T08:58:27.235Z,18.10
2022-09-12T09:01:02.831Z,18.20
2022-09-12T09:04:04.453Z,18.20
2022-09-12T09:07:12.692Z,18.20
2022-09-12T09:10:29.879Z,18.30
2022-09-12T09:13:43.203Z,18.30
2022-09-12T09:16:39.861Z,18.40
2022-09-12T09:19:26.879Z,18.50
2022-09-12T09:22:02.929Z,18.60
2022-09-12T09:24:53.545Z,18.70
2022-09-12T09:27:42.559Z,18.60
2022-09-12T09:30:19.811Z,18.60
2022-09-12T09:32:54.118Z,18.70
2022-09-12T09:35:26.872Z,18.70
2022-09-12T09:38:22.449Z,18.80
2022-09-12T09:40:52.579Z,18.90
2022-09-12T09:43:24.477Z,19.00
2022-09-12T09:45:53.335Z,19.10
2022-09-12T09:48:32.644Z,19.30
2022-09-12T09:51:03.140Z,19.40
2022-09-12T09:54:01.844Z,19.50
2022-09-12T09:56:42.541Z,19.60
2022-09-12T09:59:16.602Z,19.80
2022-09-12T10:01:55.014Z,19.80
2022-09-12T10:04:29.463Z,19.90
2022-09-12T10:07:03.175Z,20.00
2022-09-12T10:09:36.218Z,20.10
2022-09-12T10:12:31.487Z,20.20
2022-09-12T10:15:16.010Z,20.30
2022-09-12T10:17:49.474Z,20.40
2022-09-12T10:20:40.356Z,20.30
2022-09-12T10:23:19.626Z,20.40
2022-09-12T10:25:56.512Z,20.50
2022-09-12T10:28:32.668Z,20.60
2022-09-12T10:31:03.726Z,20.70
2022-09-12T10:33:35.522Z,20.80
2022-09-12T10:36:03.285Z,20.80
2022-09-12T10:38:34.453Z,20.90
2022-09-12T10:41:09.622Z,20.90
2022-09-12T10:43:39.895Z,20.90
2022-09-12T10:46:16.670Z,20.90
2022-09-12T10:48:52.802Z,21.00
2022-09-12T10:51:25.422Z,21.00
2022-09-12T10:54:03.053Z,21.00
2022-09-12T10:56:39.539Z,21.00
2022-09-12T10:59:21.412Z,20.90
2022-09-12T11:02:00.430Z,21.00
2022-09-12T11:05:22.852Z,20.90
2022-09-12T11:08:14.571Z,21.00
2022-09-12T11:11:10.628Z,21.10
2022-09-12T11:13:58.602Z,21.20
2022-09-12T11:16:50.590Z,21.20
2022-09-12T11:19:53.963Z,21.10
2022-09-12T11:22:31.752Z,21.00
2022-09-12T11:25:40.473Z,20.90
2022-09-12T11:28:28.431Z,20.80
2022-09-12T11:31:13.594Z,20.80
2022-09-12T11:33:53.943Z,20.80
2022-09-12T11:36:43.750Z,20.80
2022-09-12T11:39:32.020Z,20.80
2022-09-12T11:42:05.571Z,20.70
2022-09-12T11:44:41.774Z,20.70
2022-09-12T11:47:14.020Z,20.80
2022-09-12T11:49:53.420Z,20.90
2022-09-12T11:52:26.089Z,21.10
2022-09-12T11:55:17.163Z,21.20
2022-09-12T11:57:57.256Z,21.30
2022-09-12T12:00:50.193Z,21.50
2022-09-12T12:03:28.391Z,21.60
2022-09-12T12:06:19.412Z,21.80
2022-09-12T12:08:49.031Z,21.90
2022-09-12T12:11:35.794Z,22.00
2022-09-12T12:14:13.255Z,22.00
2022-09-12T12:16:41.591Z,22.20
2022-09-12T12:19:14.662Z,22.20
2022-09-12T12:21:50.688Z,22.20
2022-09-12T12:24:28.957Z,22.40
2022-09-12T12:27:04.189Z,22.50
2022-09-12T12:29:31.689Z,22.60
2022-09-12T12:32:04.735Z,22.60
2022-09-12T12:34:37.923Z,22.70
2022-09-12T12:37:21.003Z,22.60
2022-09-12T12:39:48.319Z,22.40
2022-09-12T12:42:36.808Z,22.30
2022-09-12T12:45:20.134Z,22.30
2022-09-12T12:48:05.144Z,22.20
2022-09-12T12:50:37.915Z,22.20
2022-09-12T12:53:19.786Z,22.20
2022-09-12T12:55:52.876Z,22.20
2022-09-12T12:58:38.771Z,22.10
2022-09-12T13:01:21.493Z,22.20
2022-09-12T13:04:12.414Z,22.30
2022-09-12T13:06:46.737Z,22.50
2022-09-12T13:09:33.173Z,22.80
2022-09-12T13:12:11.504Z,23.00
2022-09-12T13:14:58.325Z,23.20
2022-09-12T13:17:41.183Z,23.20
2022-09-12T13:20:29.711Z,23.10
2022-09-12T13:23:00.582Z,22.90
2022-09-12T13:25:36.852Z,22.70
2022-09-12T13:28:13.097Z,22.50
2022-09-12T13:30:46.749Z,22.30
2022-09-12T13:33:24.917Z,22.20
2022-09-12T13:37:02.124Z,22.00
2022-09-12T13:40:16.630Z,21.90
2022-09-12T13:42:53.668Z,21.80
2022-09-12T13:45:28.923Z,21.70
2022-09-12T13:48:02.234Z,21.90
2022-09-12T13:50:52.916Z,22.10
2022-09-12T13:53:28.578Z,22.10
2022-09-12T13:56:00.463Z,22.20
2022-09-12T13:58:35.365Z,22.10
2022-09-12T14:01:15.836Z,22.00
2022-09-12T14:04:14.546Z,22.00
2022-09-12T14:06:52.254Z,22.20
2022-09-12T14:09:34.929Z,22.60
2022-09-12T14:12:03.247Z,22.90
2022-09-12T14:14:36.107Z,23.20
2022-09-12T14:17:34.787Z,23.50
2022-09-12T14:20:33.532Z,23.70
2022-09-12T14:23:30.771Z,23.90
2022-09-12T14:26:02.609Z,24.00
2022-09-12T14:28:31.183Z,24.10
2022-09-12T14:31:07.493Z,23.90
2022-09-12T14:33:55.516Z,23.80
2022-09-12T14:36:48.720Z,23.90
2022-09-12T14:39:26.829Z,24.00
2022-09-12T14:42:18.370Z,24.20
2022-09-12T14:45:02.233Z,24.20
2022-09-12T14:47:42.843Z,24.30
2022-09-12T14:50:35.356Z,24.30
2022-09-12T14:53:32.699Z,24.30
2022-09-12T14:56:13.946Z,24.20
2022-09-12T14:58:42.466Z,24.00
2022-09-12T15:01:12.806Z,23.80
2022-09-12T15:03:49.565Z,23.60
2022-09-12T15:06:31.853Z,23.30
2022-09-12T15:09:05.963Z,23.20
2022-09-12T15:11:33.856Z,22.90
2022-09-12T15:14:13.936Z,22.80
2022-09-12T15:16:42.255Z,22.60
2022-09-12T15:19:12.188Z,22.50
2022-09-12T15:21:39.437Z,22.40
2022-09-12T15:24:06.754Z,22.20
2022-09-12T15:26:33.838Z,22.00
2022-09-12T15:29:04.494Z,22.00
2022-09-12T15:31:32.615Z,21.80
2022-09-12T15:34:02.179Z,21.70
2022-09-12T15:36:29.617Z,21.60
2022-09-12T15:38:58.254Z,21.50
2022-09-12T15:41:37.652Z,21.50
2022-09-12T15:44:06.762Z,21.50
2022-09-12T15:46:34.393Z,21.40
2022-09-12T15:49:01.691Z,21.30
2022-09-12T15:51:32.300Z,21.30
2022-09-12T15:54:02.004Z,21.20
2022-09-12T15:56:32.258Z,21.10
2022-09-12T15:59:02.921Z,21.00
2022-09-12T16:01:30.112Z,21.00
2022-09-12T16:03:58.040Z,21.00
2022-09-12T16:06:25.344Z,20.90
2022-09-12T16:08:52.498Z,20.80
2022-09-12T16:11:27.263Z,20.80
2022-09-12T16:13:57.096Z,20.80
2022-09-12T16:16:24.345Z,20.70
2022-09-12T16:18:51.810Z,20.70
2022-09-12T16:21:23.179Z,20.60
2022-09-12T16:23:50.477Z,20.50
2022-09-12T16:26:17.831Z,20.50
2022-09-12T16:28:45.397Z,20.40
2022-09-12T16:31:14.493Z,20.40
2022-09-12T16:33:42.278Z,20.30
2022-09-12T16:36:15.487Z,20.30
2022-09-12T16:38:49.306Z,20.20
2022-09-12T16:41:18.953Z,20.10
2022-09-12T16:43:46.316Z,20.10
2022-09-12T16:46:20.645Z,20.10
2022-09-12T16:48:56.612Z,20.00
2022-09-12T16:51:32.171Z,19.90
2022-09-12T16:53:59.511Z,19.80
2022-09-12T16:56:26.710Z,19.70
2022-09-12T16:58:54.641Z,19.70
2022-09-12T17:01:25.307Z,19.60
2022-09-12T17:03:58.276Z,19.50
2022-09-12T17:06:26.623Z,19.40
2022-09-12T17:09:01.197Z,19.30
2022-09-12T17:11:36.405Z,19.20
2022-09-12T17:14:07.407Z,19.10
2022-09-12T17:16:38.997Z,19.10
2022-09-12T17:19:07.082Z,19.00
2022-09-12T17:21:35.375Z,18.90
2022-09-12T17:24:04.116Z,18.90
2022-09-12T17:26:31.682Z,18.80
2022-09-12T17:28:59.098Z,18.80
2022-09-12T17:31:26.645Z,18.70
2022-09-12T17:33:59.359Z,18.70
2022-09-12T17:36:28.067Z,18.60
2022-09-12T17:38:55.732Z,18.60
2022-09-12T17:41:27.409Z,18.50
2022-09-12T17:43:57.508Z,18.50
2022-09-12T17:46:32.904Z,18.40
2022-09-12T17:49:01.110Z,18.40
2022-09-12T17:51:31.195Z,18.30
2022-09-12T17:54:05.575Z,18.30
2022-09-12T17:56:35.160Z,18.20
2022-09-12T17:59:03.464Z,18.20
2022-09-12T18:01:50.244Z,18.20
2022-09-12T18:04:20.247Z,18.20
2022-09-12T18:06:51.453Z,18.10
2022-09-12T18:09:23.478Z,18.10
2022-09-12T18:11:52.698Z,18.10
2022-09-12T18:14:23.891Z,18.00
2022-09-12T18:16:52.377Z,17.90
2022-09-12T18:19:24.577Z,17.90
2022-09-12T18:21:56.376Z,17.80
2022-09-12T18:24:30.252Z,17.80
2022-09-12T18:26:58.650Z,17.80
2022-09-12T18:29:28.179Z,17.70
2022-09-12T18:31:57.085Z,17.70
2022-09-12T18:34:31.244Z,17.60
2022-09-12T18:36:59.949Z,17.60
2022-09-12T18:39:28.403Z,17.50
2022-09-12T18:41:59.426Z,17.50
2022-09-12T18:44:27.211Z,17.40
2022-09-12T18:46:58.006Z,17.40
2022-09-12T18:49:26.049Z,17.30
2022-09-12T18:51:53.711Z,17.30
2022-09-12T18:54:22.112Z,17.20
2022-09-12T18:56:54.353Z,17.20
2022-09-12T18:59:25.852Z,17.10
2022-09-12T19:01:54.331Z,17.10
2022-09-12T19:04:28.022Z,17.10
2022-09-12T19:06:57.289Z,17.00
2022-09-12T19:09:25.980Z,16.90
2022-09-12T19:11:53.968Z,16.90
2022-09-12T19:14:27.704Z,16.80
2022-09-12T19:16:55.563Z,16.80
2022-09-12T19:19:26.470Z,16.70
2022-09-12T19:21:55.394Z,16.70
2022-09-12T19:24:23.870Z,16.80
2022-09-12T19:26:53.869Z,16.70
2022-09-12T19:29:24.722Z,16.70
2022-09-12T19:31:58.452Z,16.60
2022-09-12T19:34:30.980Z,16.60
2022-09-12T19:36:59.681Z,16.50
2022-09-12T19:39:31.572Z,16.50
2022-09-12T19:41:59.048Z,16.40
2022-09-12T19:44:31.125Z,16.40
2022-09-12T19:46:59.850Z,16.40
2022-09-12T19:49:27.379Z,16.30
2022-09-12T19:51:55.238Z,16.30
2022-09-12T19:54:25.915Z,16.20
2022-09-12T19:56:56.725Z,16.20
2022-09-12T19:59:27.397Z,16.10
2022-09-12T20:01:55.981Z,16.10
2022-09-12T20:04:23.410Z,16.10
2022-09-12T20:06:51.685Z,16.00
2022-09-12T20:09:19.378Z,16.00
2022-09-12T20:11:47.103Z,15.90
2022-09-12T20:14:14.692Z,15.90
2022-09-12T20:16:42.039Z,15.90
2022-09-12T20:19:10.102Z,15.80
2022-09-12T20:21:37.978Z,15.80
2022-09-12T20:24:10.148Z,15.70
2022-09-12T20:26:41.896Z,15.70
2022-09-12T20:29:10.101Z,15.70
2022-09-12T20:34:13.629Z,15.60
2022-09-12T20:36:41.240Z,15.60
2022-09-12T20:39:13.518Z,15.60
2022-09-12T20:41:40.665Z,15.60
2022-09-12T20:44:08.601Z,15.50
2022-09-12T20:46:35.754Z,15.50
2022-09-12T20:49:04.130Z,15.40
2022-09-12T20:51:32.057Z,15.40
2022-09-12T20:54:03.571Z,15.40
2022-09-12T20:56:34.106Z,15.40
2022-09-12T20:59:02.498Z,15.30
2022-09-12T21:01:31.595Z,15.30
2022-09-12T21:04:00.910Z,15.20
2022-09-12T21:06:28.878Z,15.20
2022-09-12T21:09:00.537Z,15.20
2022-09-12T21:11:28.631Z,15.20
2022-09-12T21:13:55.931Z,15.10
2022-09-12T21:16:23.780Z,15.10
2022-09-12T21:18:58.883Z,15.10
2022-09-12T21:21:26.918Z,15.10
2022-09-12T21:24:17.186Z,15.00
2022-09-12T21:26:44.382Z,15.00
2022-09-12T21:29:11.554Z,14.90
2022-09-12T21:31:43.373Z,14.90
2022-09-12T21:34:10.488Z,14.90
2022-09-12T21:36:37.598Z,14.90
2022-09-12T21:39:08.084Z,14.90
2022-09-12T21:41:35.201Z,14.80
2022-09-12T21:44:02.795Z,14.80
2022-09-12T21:46:33.234Z,14.80
2022-09-12T21:49:00.741Z,14.80
2022-09-12T21:51:27.805Z,14.70
2022-09-12T21:53:55.187Z,14.70
2022-09-12T21:56:22.433Z,14.70
2022-09-12T21:58:52.814Z,14.70
2022-09-12T22:01:19.935Z,14.70
2022-09-12T22:03:47.213Z,14.60
2022-09-12T22:06:14.495Z,14.60
2022-09-12T22:08:41.776Z,14.60
2022-09-12T22:11:10.189Z,14.60
2022-09-12T22:13:41.133Z,14.50
2022-09-12T22:16:08.493Z,14.50
2022-09-12T22:18:39.221Z,14.50
2022-09-12T22:21:19.510Z,14.40
2022-09-12T22:24:05.184Z,14.40
2022-09-12T22:26:46.411Z,14.40
2022-09-12T22:29:13.886Z,14.30
2022-09-12T22:31:41.064Z,14.30
2022-09-12T22:34:08.194Z,14.30
2022-09-12T22:36:38.742Z,14.20
2022-09-12T22:39:07.143Z,14.20
2022-09-12T22:41:34.450Z,14.20
2022-09-12T22:44:01.771Z,14.20
2022-09-12T22:46:30.227Z,14.20
2022-09-12T22:48:57.264Z,14.20
2022-09-12T22:51:24.441Z,14.20
2022-09-12T22:53:51.930Z,14.20
2022-09-12T22:56:19.335Z,14.20
2022-09-12T22:58:46.596Z,14.20
2022-09-12T23:01:13.930Z,14.20
2022-09-12T23:03:41.414Z,14.20
2022-09-12T23:06:10.052Z,14.20
2022-09-12T23:08:38.972Z,14.10
2022-09-12T23:11:09.949Z,14.10
2022-09-12T23:13:38.364Z,14.10
2022-09-12T23:16:08.090Z,14.10
2022-09-12T23:18:36.834Z,14.10
2022-09-12T23:21:07.575Z,14.10
2022-09-12T23:23:35.811Z,14.10
2022-09-12T23:26:22.417Z,14.10
2022-09-12T23:28:55.461Z,14.10
2022-09-12T23:31:26.775Z,14.10
2022-09-12T23:33:54.488Z,14.00
2022-09-12T23:36:22.409Z,14.00
2022-09-12T23:38:54.973Z,14.00
2022-09-12T23:41:23.309Z,14.00
2022-09-12T23:43:50.618Z,14.00
2022-09-12T23:46:18.860Z,14.00
2022-09-12T23:48:46.075Z,13.90
2022-09-12T23:51:13.923Z,14.00
2022-09-12T23:53:44.393Z,13.90
2022-09-12T23:56:14.907Z,13.90
2022-09-12T23:58:42.130Z,13.90
